createdAt,value
2023-03-30T00:00:56.084Z,3.60
2023-03-30T00:03:23.545Z,4.03
2023-03-30T00:05:51.969Z,3.78
2023-03-30T00:08:19.422Z,3.97
2023-03-30T00:10:47.976Z,5.00
2023-03-30T00:13:15.268Z,3.47
2023-03-30T00:15:42.382Z,3.60
2023-03-30T00:18:09.922Z,5.22
2023-03-30T00:20:37.897Z,9.80
2023-03-30T00:23:05.086Z,12.27
2023-03-30T00:25:32.293Z,13.80
2023-03-30T00:27:59.418Z,13.63
2023-03-30T00:30:26.690Z,15.85
2023-03-30T00:32:54.036Z,13.75
2023-03-30T00:35:21.330Z,17.23
2023-03-30T00:37:49.906Z,17.45
2023-03-30T00:40:20.220Z,17.38
2023-03-30T00:42:48.448Z,17.25
2023-03-30T00:45:20.764Z,17.05
2023-03-30T00:48:01.934Z,17.25
2023-03-30T00:50:36.999Z,15.73
2023-03-30T00:53:10.072Z,14.20
2023-03-30T00:55:39.822Z,13.73
2023-03-30T00:58:10.172Z,12.93
2023-03-30T01:00:39.626Z,13.57
2023-03-30T01:03:15.192Z,12.60
2023-03-30T01:05:44.848Z,11.60
2023-03-30T01:08:14.163Z,11.48
2023-03-30T01:10:41.433Z,11.05
2023-03-30T01:13:08.704Z,10.90
2023-03-30T01:15:42.944Z,12.20
2023-03-30T01:18:19.797Z,11.43
2023-03-30T01:21:10.822Z,11.40
2023-03-30T01:24:16.010Z,10.32
2023-03-30T01:27:05.228Z,10.25
2023-03-30T01:29:57.178Z,9.48
2023-03-30T01:32:46.488Z,8.80
2023-03-30T01:35:38.316Z,7.65
2023-03-30T01:38:17.874Z,6.32
2023-03-30T01:41:07.957Z,6.10
2023-03-30T01:44:24.844Z,5.80
2023-03-30T01:46:59.832Z,5.05
2023-03-30T01:49:53.143Z,4.47
2023-03-30T01:55:02.141Z,3.50
2023-03-30T01:57:41.366Z,3.47
2023-03-30T02:00:14.944Z,3.22
2023-03-30T02:02:48.880Z,3.33
2023-03-30T02:05:19.851Z,3.42
2023-03-30T02:07:53.501Z,3.63
2023-03-30T02:10:25.062Z,3.20
2023-03-30T02:12:54.683Z,3.00
2023-03-30T02:15:23.819Z,3.10
2023-03-30T02:17:51.520Z,3.15
2023-03-30T02:20:19.112Z,4.03
2023-03-30T02:22:46.717Z,4.13
2023-03-30T02:25:14.612Z,4.43
2023-03-30T02:27:42.853Z,2.88
2023-03-30T02:30:10.655Z,3.28
2023-03-30T02:32:57.360Z,2.75
2023-03-30T02:35:38.791Z,3.20
2023-03-30T02:38:30.680Z,3.25
2023-03-30T02:41:34.655Z,3.65
2023-03-30T02:44:37.023Z,2.65
2023-03-30T02:47:07.000Z,3.60
2023-03-30T02:49:59.073Z,2.67
2023-03-30T02:53:07.691Z,3.35
2023-03-30T02:55:54.392Z,3.47
2023-03-30T02:58:38.542Z,3.40
2023-03-30T03:01:14.993Z,3.15
2023-03-30T03:03:55.227Z,3.28
2023-03-30T03:06:23.876Z,3.60
2023-03-30T03:08:55.785Z,4.18
2023-03-30T03:11:27.237Z,4.78
2023-03-30T03:13:55.699Z,4.68
2023-03-30T03:16:24.031Z,7.00
2023-03-30T03:19:11.935Z,11.13
2023-03-30T03:21:40.145Z,11.25
2023-03-30T03:24:08.240Z,12.50
2023-03-30T03:26:55.703Z,12.75
2023-03-30T03:29:23.836Z,18.52
2023-03-30T03:31:51.107Z,16.05
2023-03-30T03:34:20.896Z,15.70
2023-03-30T03:36:58.900Z,11.85
2023-03-30T03:39:28.687Z,12.10
2023-03-30T03:42:05.333Z,10.98
2023-03-30T03:44:34.176Z,11.15
2023-03-30T03:47:01.304Z,9.48
2023-03-30T03:49:28.462Z,8.70
2023-03-30T03:51:55.523Z,9.73
2023-03-30T03:54:22.804Z,7.40
2023-03-30T03:56:52.148Z,6.97
2023-03-30T03:59:19.271Z,8.45
2023-03-30T04:01:48.174Z,8.57
2023-03-30T04:04:15.358Z,6.97
2023-03-30T04:06:42.705Z,7.55
2023-03-30T04:09:09.803Z,8.00
2023-03-30T04:12:00.307Z,6.93
2023-03-30T04:14:58.426Z,6.88
2023-03-30T04:17:47.319Z,7.57
2023-03-30T04:20:32.998Z,7.75
2023-03-30T04:23:23.453Z,10.27
2023-03-30T04:26:09.431Z,12.40
2023-03-30T04:28:47.093Z,12.35
2023-03-30T04:31:47.142Z,8.70
2023-03-30T04:34:21.900Z,7.32
2023-03-30T04:37:04.991Z,7.35
2023-03-30T04:40:09.414Z,5.65
2023-03-30T04:43:04.665Z,4.72
2023-03-30T04:46:03.945Z,5.32
2023-03-30T04:48:34.032Z,6.47
2023-03-30T04:51:10.477Z,6.00
2023-03-30T04:54:03.721Z,5.60
2023-03-30T04:56:59.960Z,5.55
2023-03-30T04:59:45.554Z,6.72
2023-03-30T05:02:42.355Z,8.20
2023-03-30T05:05:29.837Z,6.35
2023-03-30T05:08:19.982Z,6.82
2023-03-30T05:11:07.722Z,7.05
2023-03-30T05:13:52.285Z,7.17
2023-03-30T05:16:38.392Z,6.43
2023-03-30T05:19:05.674Z,6.13
2023-03-30T05:21:47.775Z,7.77
2023-03-30T05:24:26.623Z,6.75
2023-03-30T05:27:12.988Z,7.15
2023-03-30T05:30:09.797Z,7.10
2023-03-30T05:32:43.183Z,7.35
2023-03-30T05:35:34.845Z,7.47
2023-03-30T05:38:24.022Z,7.82
2023-03-30T05:41:09.750Z,8.93
2023-03-30T05:43:57.728Z,7.80
2023-03-30T05:46:38.930Z,9.25
2023-03-30T05:49:38.298Z,6.18
2023-03-30T05:52:13.461Z,6.15
2023-03-30T05:55:07.270Z,5.38
2023-03-30T05:58:04.096Z,4.13
2023-03-30T06:01:05.940Z,3.83
2023-03-30T06:03:39.412Z,3.30
2023-03-30T06:06:09.428Z,3.67
2023-03-30T06:08:37.527Z,3.08
2023-03-30T06:11:06.925Z,3.38
2023-03-30T06:13:44.737Z,3.17
2023-03-30T06:16:12.125Z,3.85
2023-03-30T06:18:39.588Z,3.65
2023-03-30T06:21:11.857Z,3.83
2023-03-30T06:23:58.646Z,3.60
2023-03-30T06:26:28.877Z,4.38
2023-03-30T06:28:56.324Z,2.95
2023-03-30T06:31:23.576Z,3.40
2023-03-30T06:33:58.714Z,3.38
2023-03-30T06:36:45.127Z,3.40
2023-03-30T06:39:14.900Z,2.45
2023-03-30T06:41:43.296Z,3.60
2023-03-30T06:44:30.325Z,2.67
2023-03-30T06:47:01.960Z,3.50
2023-03-30T06:49:31.027Z,3.13
2023-03-30T06:52:17.555Z,3.00
2023-03-30T06:54:45.333Z,2.13
2023-03-30T06:57:12.602Z,3.47
2023-03-30T06:59:39.898Z,3.70
2023-03-30T07:02:22.103Z,2.83
2023-03-30T07:05:09.567Z,3.63
2023-03-30T07:07:55.818Z,3.85
2023-03-30T07:10:23.705Z,3.60
2023-03-30T07:12:51.578Z,3.22
2023-03-30T07:15:20.652Z,3.42
2023-03-30T07:17:48.735Z,5.10
2023-03-30T07:20:16.091Z,5.30
2023-03-30T07:23:03.806Z,5.60
2023-03-30T07:25:31.693Z,4.07
2023-03-30T07:28:06.369Z,4.45
2023-03-30T07:30:35.773Z,5.28
2023-03-30T07:33:06.385Z,6.20
2023-03-30T07:35:33.931Z,6.13
2023-03-30T07:38:05.280Z,4.95
2023-03-30T07:40:36.012Z,5.38
2023-03-30T07:43:04.958Z,5.50
2023-03-30T07:45:32.221Z,4.18
2023-03-30T07:47:59.640Z,4.30
2023-03-30T07:50:26.920Z,3.95
2023-03-30T07:52:57.064Z,4.20
2023-03-30T07:55:25.392Z,5.13
2023-03-30T07:57:59.348Z,4.57
2023-03-30T08:00:26.658Z,4.43
2023-03-30T08:03:15.039Z,4.18
2023-03-30T08:05:42.636Z,4.45
2023-03-30T08:08:20.534Z,4.18
2023-03-30T08:10:48.175Z,4.13
2023-03-30T08:13:15.586Z,4.30
2023-03-30T08:15:43.625Z,4.25
2023-03-30T08:18:13.153Z,4.50
2023-03-30T08:20:42.669Z,4.65
2023-03-30T08:23:11.538Z,4.40
2023-03-30T08:25:38.828Z,4.47
2023-03-30T08:28:06.154Z,4.43
2023-03-30T08:30:33.665Z,4.68
2023-03-30T08:33:01.184Z,4.88
2023-03-30T08:35:29.072Z,5.38
2023-03-30T08:37:56.760Z,4.35
2023-03-30T08:40:24.022Z,4.88
2023-03-30T08:43:28.843Z,5.38
2023-03-30T08:46:00.072Z,5.03
2023-03-30T08:48:31.902Z,4.93
2023-03-30T08:51:02.948Z,5.43
2023-03-30T08:53:33.551Z,5.40
2023-03-30T08:56:20.901Z,5.30
2023-03-30T08:59:05.889Z,5.43
2023-03-30T09:01:48.921Z,5.80
2023-03-30T09:04:42.431Z,6.15
2023-03-30T09:07:18.191Z,5.38
2023-03-30T09:09:49.234Z,5.70
2023-03-30T09:12:51.418Z,5.93
2023-03-30T09:15:57.508Z,5.50
2023-03-30T09:18:32.175Z,5.20
2023-03-30T09:21:02.295Z,5.47
2023-03-30T09:23:32.018Z,5.00
2023-03-30T09:29:01.249Z,5.40
2023-03-30T09:31:33.801Z,5.20
2023-03-30T09:34:08.810Z,5.38
2023-03-30T09:36:44.708Z,4.70
2023-03-30T09:39:19.789Z,6.03
2023-03-30T09:42:09.040Z,5.80
2023-03-30T09:44:40.920Z,5.57
2023-03-30T09:47:23.264Z,5.27
2023-03-30T09:49:56.885Z,6.22
2023-03-30T09:52:27.352Z,5.97
2023-03-30T09:54:54.667Z,6.10
2023-03-30T09:57:40.054Z,6.00
2023-03-30T10:00:29.425Z,5.22
2023-03-30T10:03:02.855Z,5.80
2023-03-30T10:05:32.569Z,5.22
2023-03-30T10:08:03.411Z,5.97
2023-03-30T10:10:36.525Z,6.25
2023-03-30T10:13:08.583Z,5.75
2023-03-30T10:15:39.754Z,5.20
2023-03-30T10:18:30.638Z,5.45
2023-03-30T10:21:08.203Z,6.32
2023-03-30T10:23:41.988Z,5.70
2023-03-30T10:26:20.908Z,4.32
2023-03-30T10:29:11.188Z,5.20
2023-03-30T10:31:42.813Z,5.90
2023-03-30T10:34:28.406Z,6.97
2023-03-30T10:36:55.707Z,7.28
2023-03-30T10:39:32.565Z,6.75
2023-03-30T10:42:05.747Z,7.38
2023-03-30T10:44:36.557Z,6.10
2023-03-30T10:47:41.338Z,6.30
2023-03-30T10:50:16.534Z,5.85
2023-03-30T10:53:06.912Z,6.20
2023-03-30T10:55:49.359Z,5.80
2023-03-30T10:58:26.346Z,6.72
2023-03-30T11:01:28.311Z,6.22
2023-03-30T11:04:16.169Z,6.13
2023-03-30T11:06:53.311Z,6.30
2023-03-30T11:09:30.825Z,5.93
2023-03-30T11:12:16.933Z,6.65
2023-03-30T11:14:52.590Z,6.30
2023-03-30T11:17:41.116Z,7.03
2023-03-30T11:20:31.290Z,5.93
2023-03-30T11:23:10.657Z,6.55
2023-03-30T11:25:49.576Z,6.32
2023-03-30T11:28:48.811Z,7.20
2023-03-30T11:31:34.841Z,6.97
2023-03-30T11:34:24.669Z,7.55
2023-03-30T11:37:01.105Z,6.88
2023-03-30T11:39:34.637Z,7.05
2023-03-30T11:42:16.239Z,7.82
2023-03-30T11:44:43.776Z,8.07
2023-03-30T11:47:38.955Z,6.40
2023-03-30T11:50:24.535Z,6.82
2023-03-30T11:52:51.585Z,6.68
2023-03-30T11:55:42.001Z,6.22
2023-03-30T11:58:16.245Z,6.90
2023-03-30T12:01:01.489Z,6.63
2023-03-30T12:03:42.872Z,8.65
2023-03-30T12:06:29.014Z,6.63
2023-03-30T12:08:59.095Z,6.53
2023-03-30T12:11:39.837Z,4.82
2023-03-30T12:14:26.223Z,6.30
2023-03-30T12:16:57.887Z,6.05
2023-03-30T12:19:48.875Z,6.22
2023-03-30T12:22:52.593Z,5.85
2023-03-30T12:26:13.495Z,6.93
2023-03-30T12:29:11.223Z,6.25
2023-03-30T12:31:54.857Z,6.70
2023-03-30T12:34:27.222Z,6.05
2023-03-30T12:37:04.813Z,6.80
2023-03-30T12:39:50.213Z,5.60
2023-03-30T12:42:27.361Z,6.40
2023-03-30T12:45:13.316Z,6.57
2023-03-30T12:48:04.533Z,6.88
2023-03-30T12:50:54.383Z,5.90
2023-03-30T12:53:39.768Z,6.03
2023-03-30T12:56:26.575Z,6.07
2023-03-30T12:59:18.650Z,6.15
2023-03-30T13:01:54.601Z,5.63
2023-03-30T13:04:24.651Z,5.57
2023-03-30T13:07:02.798Z,4.90
2023-03-30T13:09:55.825Z,6.30
2023-03-30T13:12:42.429Z,6.13
2023-03-30T13:15:34.790Z,5.72
2023-03-30T13:18:29.745Z,5.82
2023-03-30T13:20:56.766Z,5.85
2023-03-30T13:23:25.933Z,6.15
2023-03-30T13:26:04.713Z,8.25
2023-03-30T13:28:55.015Z,6.07
2023-03-30T13:31:30.103Z,6.40
2023-03-30T13:34:06.860Z,6.05
2023-03-30T13:36:40.633Z,6.03
2023-03-30T13:39:29.689Z,5.70
2023-03-30T13:41:59.805Z,5.85
2023-03-30T13:44:42.004Z,5.53
2023-03-30T13:47:40.239Z,5.80
2023-03-30T13:50:24.293Z,6.05
2023-03-30T13:52:55.665Z,5.30
2023-03-30T13:55:33.678Z,5.57
2023-03-30T13:58:17.082Z,5.07
2023-03-30T14:00:49.935Z,4.28
2023-03-30T14:03:39.420Z,5.30
2023-03-30T14:06:23.578Z,5.38
2023-03-30T14:09:05.561Z,5.22
2023-03-30T14:11:41.667Z,5.20
2023-03-30T14:14:15.829Z,6.20
2023-03-30T14:16:43.181Z,5.60
2023-03-30T14:19:19.208Z,4.57
2023-03-30T14:21:47.899Z,5.78
2023-03-30T14:24:32.020Z,5.22
2023-03-30T14:27:14.225Z,6.40
2023-03-30T14:29:50.668Z,4.75
2023-03-30T14:32:23.299Z,5.20
2023-03-30T14:34:52.751Z,4.68
2023-03-30T14:37:22.013Z,5.32
2023-03-30T14:39:53.443Z,4.78
2023-03-30T14:42:21.895Z,5.10
2023-03-30T14:44:51.822Z,6.20
2023-03-30T14:47:22.911Z,4.43
2023-03-30T14:49:54.028Z,5.50
2023-03-30T14:52:33.454Z,3.47
2023-03-30T14:55:06.011Z,6.18
2023-03-30T14:57:39.725Z,4.80
2023-03-30T15:00:21.204Z,4.85
2023-03-30T15:03:02.472Z,4.15
2023-03-30T15:05:47.693Z,4.43
2023-03-30T15:08:21.761Z,3.72
2023-03-30T15:11:20.594Z,3.40
2023-03-30T15:13:52.238Z,3.50
2023-03-30T15:16:27.077Z,3.60
2023-03-30T15:19:02.593Z,3.92
2023-03-30T15:21:33.301Z,4.28
2023-03-30T15:24:01.340Z,3.70
2023-03-30T15:26:29.179Z,3.70
2023-03-30T15:28:58.431Z,3.38
2023-03-30T15:31:28.259Z,3.83
2023-03-30T15:33:59.751Z,4.95
2023-03-30T15:36:38.674Z,3.60
2023-03-30T15:39:33.669Z,3.90
2023-03-30T15:42:06.506Z,24.75
2023-03-30T15:44:39.064Z,53.63
2023-03-30T15:47:19.838Z,16.35
2023-03-30T15:49:51.220Z,15.40
2023-03-30T15:52:32.144Z,18.02
2023-03-30T15:55:14.745Z,10.13
2023-03-30T15:57:44.316Z,5.35
2023-03-30T16:00:19.222Z,4.80
2023-03-30T16:03:00.231Z,4.30
2023-03-30T16:05:30.522Z,5.00
2023-03-30T16:07:58.195Z,5.03
2023-03-30T16:10:28.777Z,15.05
2023-03-30T16:12:58.317Z,19.60
2023-03-30T16:15:28.484Z,18.88
2023-03-30T16:17:55.892Z,11.93
2023-03-30T16:20:25.681Z,8.05
2023-03-30T16:22:52.892Z,8.32
2023-03-30T16:25:26.033Z,6.55
2023-03-30T16:28:01.536Z,9.75
2023-03-30T16:30:35.418Z,13.25
2023-03-30T16:33:04.111Z,12.10
2023-03-30T16:35:31.932Z,10.48
2023-03-30T16:37:59.262Z,12.93
2023-03-30T16:40:26.871Z,8.77
2023-03-30T16:42:54.277Z,7.15
2023-03-30T16:45:22.059Z,5.70
2023-03-30T16:47:50.095Z,6.20
2023-03-30T16:50:23.330Z,7.22
2023-03-30T16:52:51.654Z,8.07
2023-03-30T16:55:19.410Z,8.38
2023-03-30T16:57:46.861Z,8.43
2023-03-30T17:00:27.135Z,8.93
2023-03-30T17:02:55.091Z,8.90
2023-03-30T17:05:22.529Z,8.90
2023-03-30T17:07:55.100Z,9.05
2023-03-30T17:10:29.192Z,7.82
2023-03-30T17:12:56.406Z,9.68
2023-03-30T17:15:27.471Z,10.15
2023-03-30T17:17:56.838Z,10.40
2023-03-30T17:20:36.724Z,10.18
2023-03-30T17:23:04.851Z,11.52
2023-03-30T17:25:36.725Z,13.30
2023-03-30T17:28:05.710Z,14.27
2023-03-30T17:30:36.713Z,13.35
2023-03-30T17:33:04.900Z,9.20
2023-03-30T17:35:32.567Z,7.63
2023-03-30T17:38:00.818Z,5.90
2023-03-30T17:40:31.624Z,5.55
2023-03-30T17:42:59.159Z,7.25
2023-03-30T17:45:30.312Z,8.68
2023-03-30T17:47:58.843Z,10.27
2023-03-30T17:50:35.889Z,11.23
2023-03-30T17:53:03.934Z,10.68
2023-03-30T17:55:33.898Z,9.75
2023-03-30T17:58:02.785Z,8.88
2023-03-30T18:00:34.648Z,8.60
2023-03-30T18:03:02.723Z,8.90
2023-03-30T18:05:33.487Z,8.35
2023-03-30T18:08:01.496Z,8.80
2023-03-30T18:10:36.744Z,9.20
2023-03-30T18:13:05.667Z,10.60
2023-03-30T18:15:34.827Z,11.82
2023-03-30T18:18:02.842Z,11.27
2023-03-30T18:20:38.929Z,11.20
2023-03-30T18:23:07.230Z,11.10
2023-03-30T18:25:35.145Z,11.95
2023-03-30T18:28:03.715Z,16.65
2023-03-30T18:30:42.624Z,17.98
2023-03-30T18:33:11.157Z,15.65
2023-03-30T18:35:39.871Z,13.23
2023-03-30T18:38:08.177Z,15.43
2023-03-30T18:40:42.432Z,14.68
2023-03-30T18:43:12.186Z,16.20
2023-03-30T18:45:48.870Z,15.43
2023-03-30T18:48:19.819Z,16.15
2023-03-30T18:50:50.055Z,17.80
2023-03-30T18:53:27.504Z,20.38
2023-03-30T18:56:01.962Z,16.10
2023-03-30T18:58:34.005Z,15.20
2023-03-30T19:01:04.063Z,15.20
2023-03-30T19:03:33.321Z,14.75
2023-03-30T19:06:01.788Z,15.60
2023-03-30T19:08:29.949Z,19.75
2023-03-30T19:10:59.111Z,19.63
2023-03-30T19:13:31.560Z,17.85
2023-03-30T19:16:04.849Z,18.50
2023-03-30T19:18:33.421Z,18.92
2023-03-30T19:21:01.754Z,19.92
2023-03-30T19:23:30.312Z,19.45
2023-03-30T19:25:59.535Z,20.70
2023-03-30T19:28:27.534Z,21.45
2023-03-30T19:30:55.801Z,19.52
2023-03-30T19:33:23.865Z,20.25
2023-03-30T19:35:52.830Z,27.77
2023-03-30T19:38:20.473Z,24.83
2023-03-30T19:40:48.588Z,24.80
2023-03-30T19:43:17.404Z,25.65
2023-03-30T19:45:51.119Z,24.58
2023-03-30T19:48:20.248Z,24.35
2023-03-30T19:50:51.571Z,26.60
2023-03-30T19:53:19.430Z,27.98
2023-03-30T19:55:49.107Z,26.15
2023-03-30T19:58:17.189Z,23.75
2023-03-30T20:00:50.147Z,23.73
2023-03-30T20:03:19.749Z,28.10
2023-03-30T20:05:50.608Z,25.30
2023-03-30T20:08:24.427Z,23.83
2023-03-30T20:10:53.108Z,26.67
2023-03-30T20:13:24.691Z,19.02
2023-03-30T20:15:56.315Z,15.82
2023-03-30T20:18:23.639Z,16.30
2023-03-30T20:20:51.349Z,16.25
2023-03-30T20:23:18.604Z,17.38
2023-03-30T20:25:50.668Z,20.10
2023-03-30T20:28:18.163Z,21.77
2023-03-30T20:30:45.429Z,19.25
2023-03-30T20:33:12.730Z,23.80
2023-03-30T20:35:40.020Z,28.75
2023-03-30T20:38:08.675Z,22.45
2023-03-30T20:40:36.355Z,20.67
2023-03-30T20:43:03.719Z,23.65
2023-03-30T20:45:31.533Z,26.20
2023-03-30T20:47:59.834Z,19.98
2023-03-30T20:50:27.380Z,19.23
2023-03-30T20:52:54.691Z,18.30
2023-03-30T20:55:21.847Z,19.00
2023-03-30T20:57:48.856Z,19.25
2023-03-30T21:00:16.347Z,18.55
2023-03-30T21:02:43.452Z,21.23
2023-03-30T21:05:10.601Z,45.90
2023-03-30T21:07:38.626Z,42.97
2023-03-30T21:10:06.636Z,25.38
2023-03-30T21:12:33.795Z,28.92
2023-03-30T21:15:00.860Z,23.80
2023-03-30T21:17:27.961Z,20.80
2023-03-30T21:19:55.023Z,21.88
2023-03-30T21:22:22.146Z,21.40
2023-03-30T21:24:49.171Z,22.10
2023-03-30T21:27:16.385Z,22.35
2023-03-30T21:29:43.466Z,23.75
2023-03-30T21:32:10.708Z,24.05
2023-03-30T21:34:37.834Z,22.55
2023-03-30T21:37:04.964Z,22.05
2023-03-30T21:39:32.104Z,25.77
2023-03-30T21:41:59.328Z,28.85
2023-03-30T21:44:26.536Z,31.80
2023-03-30T21:46:53.698Z,27.25
2023-03-30T21:49:21.019Z,23.88
2023-03-30T21:51:48.801Z,19.38
2023-03-30T21:54:16.229Z,19.55
2023-03-30T21:56:43.536Z,16.98
2023-03-30T21:59:10.833Z,23.20
2023-03-30T22:01:41.194Z,18.50
2023-03-30T22:04:08.494Z,15.45
2023-03-30T22:06:35.599Z,16.40
2023-03-30T22:09:03.015Z,15.00
2023-03-30T22:11:30.295Z,13.98
2023-03-30T22:13:57.454Z,11.77
2023-03-30T22:16:28.476Z,11.27
2023-03-30T22:18:55.841Z,9.60
2023-03-30T22:21:25.084Z,10.07
2023-03-30T22:23:54.952Z,9.07
2023-03-30T22:26:22.615Z,8.35
2023-03-30T22:28:49.714Z,7.90
2023-03-30T22:31:17.049Z,8.23
2023-03-30T22:33:44.966Z,7.75
2023-03-30T22:36:20.669Z,8.10
2023-03-30T22:38:49.555Z,7.72
2023-03-30T22:41:18.826Z,8.20
2023-03-30T22:43:46.919Z,7.88
2023-03-30T22:46:14.058Z,7.50
2023-03-30T22:48:41.647Z,7.88
2023-03-30T22:51:09.220Z,7.38
2023-03-30T22:53:36.572Z,7.80
2023-03-30T22:56:04.453Z,7.80
2023-03-30T22:58:31.694Z,7.90
2023-03-30T23:01:02.999Z,7.75
2023-03-30T23:03:30.344Z,6.20
2023-03-30T23:06:01.396Z,7.00
2023-03-30T23:08:31.136Z,6.43
2023-03-30T23:11:05.162Z,6.68
2023-03-30T23:13:38.009Z,6.50
2023-03-30T23:16:06.779Z,6.38
2023-03-30T23:18:34.978Z,6.55
2023-03-30T23:21:07.039Z,7.68
2023-03-30T23:23:38.453Z,6.43
2023-03-30T23:26:10.434Z,7.10
2023-03-30T23:28:39.585Z,6.93
2023-03-30T23:31:12.538Z,6.53
2023-03-30T23:33:40.651Z,7.20
2023-03-30T23:36:09.261Z,6.80
2023-03-30T23:38:37.613Z,7.50
2023-03-30T23:41:06.111Z,7.15
2023-03-30T23:43:33.358Z,6.88
2023-03-30T23:46:00.500Z,6.97
2023-03-30T23:48:27.668Z,8.18
2023-03-30T23:50:56.805Z,7.68
2023-03-30T23:53:25.152Z,7.03
2023-03-30T23:55:52.913Z,7.38
2023-03-30T23:58:20.069Z,7.70
